sensor_id;sensor_type;location;lat;lon;timestamp;pressure;altitude;pressure_sealevel;temperature;humidity
66880;BME280;72009;51.392;10.234;2024-03-08T00:00:17;98649.78;;;-0.12;93.28
66880;BME280;72009;51.392;10.234;2024-03-08T00:00:38;98650.81;;;-0.13;93.50
66880;BME280;72009;51.392;10.234;2024-03-08T00:00:58;98650.00;;;-0.14;93.09
66880;BME280;72009;51.392;10.234;2024-03-08T00:01:18;98648.97;;;-0.13;93.14
66880;BME280;72009;51.392;10.234;2024-03-08T00:01:38;98648.13;;;-0.13;93.08
66880;BME280;72009;51.392;10.234;2024-03-08T00:01:59;98650.81;;;-0.13;93.33
66880;BME280;72009;51.392;10.234;2024-03-08T00:02:19;98658.94;;;-0.13;93.05
66880;BME280;72009;51.392;10.234;2024-03-08T00:02:40;98653.53;;;-0.13;93.50
66880;BME280;72009;51.392;10.234;2024-03-08T00:03:00;98651.66;;;-0.13;93.76
66880;BME280;72009;51.392;10.234;2024-03-08T00:03:21;98651.66;;;-0.13;93.75
66880;BME280;72009;51.392;10.234;2024-03-08T00:03:41;98652.72;;;-0.14;93.25
66880;BME280;72009;51.392;10.234;2024-03-08T00:04:01;98651.06;;;-0.15;93.54
66880;BME280;72009;51.392;10.234;2024-03-08T00:04:22;98653.75;;;-0.15;93.26
66880;BME280;72009;51.392;10.234;2024-03-08T00:04:42;98653.75;;;-0.15;94.00
66880;BME280;72009;51.392;10.234;2024-03-08T00:05:04;98651.06;;;-0.15;93.96
66880;BME280;72009;51.392;10.234;2024-03-08T00:05:24;98646.72;;;-0.16;93.22
66880;BME280;72009;51.392;10.234;2024-03-08T00:05:45;98654.84;;;-0.16;93.49
66880;BME280;72009;51.392;10.234;2024-03-08T00:06:05;98646.72;;;-0.16;94.01
66880;BME280;72009;51.392;10.234;2024-03-08T00:06:26;98649.44;;;-0.16;93.45
66880;BME280;72009;51.392;10.234;2024-03-08T00:06:46;98655.66;;;-0.15;94.03
66880;BME280;72009;51.392;10.234;2024-03-08T00:07:06;98655.88;;;-0.17;93.07
66880;BME280;72009;51.392;10.234;2024-03-08T00:07:27;98655.03;;;-0.17;93.88
66880;BME280;72009;51.392;10.234;2024-03-08T00:07:47;98649.44;;;-0.16;93.94
66880;BME280;72009;51.392;10.234;2024-03-08T00:08:07;98647.75;;;-0.17;93.21
66880;BME280;72009;51.392;10.234;2024-03-08T00:08:28;98654.22;;;-0.18;92.96
66880;BME280;72009;51.392;10.234;2024-03-08T00:08:48;98647.16;;;-0.19;93.32
66880;BME280;72009;51.392;10.234;2024-03-08T00:09:08;98652.56;;;-0.19;93.14
66880;BME280;72009;51.392;10.234;2024-03-08T00:09:29;98649.84;;;-0.19;93.67
66880;BME280;72009;51.392;10.234;2024-03-08T00:09:49;98650.06;;;-0.20;93.02
66880;BME280;72009;51.392;10.234;2024-03-08T00:10:11;98646.78;;;-0.22;93.45
66880;BME280;72009;51.392;10.234;2024-03-08T00:10:32;98643.03;;;-0.21;93.45
66880;BME280;72009;51.392;10.234;2024-03-08T00:10:52;98653.63;;;-0.20;93.65
66880;BME280;72009;51.392;10.234;2024-03-08T00:11:12;98646.56;;;-0.21;94.23
66880;BME280;72009;51.392;10.234;2024-03-08T00:11:33;98648.22;;;-0.20;93.49
66880;BME280;72009;51.392;10.234;2024-03-08T00:11:54;98641.16;;;-0.21;92.82
66880;BME280;72009;51.392;10.234;2024-03-08T00:12:14;98651.16;;;-0.21;92.73
66880;BME280;72009;51.392;10.234;2024-03-08T00:12:34;98651.16;;;-0.21;92.97
66880;BME280;72009;51.392;10.234;2024-03-08T00:12:55;98645.75;;;-0.21;92.75
66880;BME280;72009;51.392;10.234;2024-03-08T00:13:15;98645.13;;;-0.23;93.09
66880;BME280;72009;51.392;10.234;2024-03-08T00:13:35;98649.72;;;-0.24;92.29
66880;BME280;72009;51.392;10.234;2024-03-08T00:13:56;98645.34;;;-0.25;93.07
66880;BME280;72009;51.392;10.234;2024-03-08T00:14:16;98651.59;;;-0.24;93.08
66880;BME280;72009;51.392;10.234;2024-03-08T00:14:36;98648.06;;;-0.25;92.58
66880;BME280;72009;51.392;10.234;2024-03-08T00:14:57;98648.91;;;-0.24;93.88
66880;BME280;72009;51.392;10.234;2024-03-08T00:15:17;98647.25;;;-0.25;93.79
66880;BME280;72009;51.392;10.234;2024-03-08T00:15:37;98645.34;;;-0.25;93.56
66880;BME280;72009;51.392;10.234;2024-03-08T00:15:58;98645.34;;;-0.25;93.79
66880;BME280;72009;51.392;10.234;2024-03-08T00:16:18;98642.66;;;-0.25;93.68
66880;BME280;72009;51.392;10.234;2024-03-08T00:16:38;98648.06;;;-0.25;93.17
66880;BME280;72009;51.392;10.234;2024-03-08T00:16:58;98638.09;;;-0.24;93.76
66880;BME280;72009;51.392;10.234;2024-03-08T00:17:19;98641.59;;;-0.24;94.33
66880;BME280;72009;51.392;10.234;2024-03-08T00:17:40;98636.19;;;-0.24;93.72
66880;BME280;72009;51.392;10.234;2024-03-08T00:18:00;98647.59;;;-0.22;94.14
66880;BME280;72009;51.392;10.234;2024-03-08T00:18:21;98641.59;;;-0.24;94.05
66880;BME280;72009;51.392;10.234;2024-03-08T00:18:41;98641.38;;;-0.22;94.02
66880;BME280;72009;51.392;10.234;2024-03-08T00:19:01;98640.09;;;-0.20;93.73
66880;BME280;72009;51.392;10.234;2024-03-08T00:19:21;98641.16;;;-0.21;93.86
66880;BME280;72009;51.392;10.234;2024-03-08T00:19:42;98644.66;;;-0.20;93.92
66880;BME280;72009;51.392;10.234;2024-03-08T00:20:02;98638.66;;;-0.22;93.56
66880;BME280;72009;51.392;10.234;2024-03-08T00:20:23;98640.34;;;-0.21;94.09
66880;BME280;72009;51.392;10.234;2024-03-08T00:20:43;98635.16;;;-0.23;93.01
66880;BME280;72009;51.392;10.234;2024-03-08T00:21:03;98637.84;;;-0.23;94.63
66880;BME280;72009;51.392;10.234;2024-03-08T00:21:24;98639.72;;;-0.23;93.34
66880;BME280;72009;51.392;10.234;2024-03-08T00:21:44;98636.19;;;-0.24;92.97
66880;BME280;72009;51.392;10.234;2024-03-08T00:22:04;98638.91;;;-0.24;93.54
66880;BME280;72009;51.392;10.234;2024-03-08T00:22:25;98631.84;;;-0.25;93.26
66880;BME280;72009;51.392;10.234;2024-03-08T00:22:45;98634.53;;;-0.25;93.56
66880;BME280;72009;51.392;10.234;2024-03-08T00:23:05;98634.31;;;-0.23;92.97
66880;BME280;72009;51.392;10.234;2024-03-08T00:23:26;98636.44;;;-0.25;92.81
66880;BME280;72009;51.392;10.234;2024-03-08T00:23:46;98631.03;;;-0.25;92.96
66880;BME280;72009;51.392;10.234;2024-03-08T00:24:06;98631.25;;;-0.27;92.29
66880;BME280;72009;51.392;10.234;2024-03-08T00:24:26;98633.94;;;-0.27;92.31
66880;BME280;72009;51.392;10.234;2024-03-08T00:24:47;98635.84;;;-0.27;92.02
66880;BME280;72009;51.392;10.234;2024-03-08T00:25:07;98638.53;;;-0.27;91.96
66880;BME280;72009;51.392;10.234;2024-03-08T00:25:28;98637.69;;;-0.28;92.13
66880;BME280;72009;51.392;10.234;2024-03-08T00:25:48;98633.13;;;-0.27;92.98
66880;BME280;72009;51.392;10.234;2024-03-08T00:26:09;98637.69;;;-0.28;92.54
66880;BME280;72009;51.392;10.234;2024-03-08T00:26:29;98627.09;;;-0.30;93.01
66880;BME280;72009;51.392;10.234;2024-03-08T00:26:49;98633.56;;;-0.31;92.99
66880;BME280;72009;51.392;10.234;2024-03-08T00:27:09;98633.78;;;-0.32;93.12
66880;BME280;72009;51.392;10.234;2024-03-08T00:27:30;98631.94;;;-0.32;92.14
66880;BME280;72009;51.392;10.234;2024-03-08T00:27:50;98633.78;;;-0.32;93.05
66880;BME280;72009;51.392;10.234;2024-03-08T00:28:11;98632.97;;;-0.33;92.48
66880;BME280;72009;51.392;10.234;2024-03-08T00:28:31;98634.00;;;-0.34;92.58
66880;BME280;72009;51.392;10.234;2024-03-08T00:28:51;98633.19;;;-0.34;92.78
66880;BME280;72009;51.392;10.234;2024-03-08T00:29:11;98625.09;;;-0.34;93.29
66880;BME280;72009;51.392;10.234;2024-03-08T00:29:32;98635.09;;;-0.35;92.44
66880;BME280;72009;51.392;10.234;2024-03-08T00:29:52;98631.53;;;-0.35;92.89
66880;BME280;72009;51.392;10.234;2024-03-08T00:30:12;98628.84;;;-0.35;92.59
66880;BME280;72009;51.392;10.234;2024-03-08T00:30:33;98630.72;;;-0.36;92.77
66880;BME280;72009;51.392;10.234;2024-03-08T00:30:53;98630.50;;;-0.34;93.66
66880;BME280;72009;51.392;10.234;2024-03-08T00:31:13;98630.50;;;-0.34;93.10
66880;BME280;72009;51.392;10.234;2024-03-08T00:31:33;98635.91;;;-0.34;93.17
66880;BME280;72009;51.392;10.234;2024-03-08T00:31:54;98633.19;;;-0.34;92.94
66880;BME280;72009;51.392;10.234;2024-03-08T00:32:14;98636.94;;;-0.35;92.57
66880;BME280;72009;51.392;10.234;2024-03-08T00:32:34;98629.91;;;-0.36;92.66
66880;BME280;72009;51.392;10.234;2024-03-08T00:32:55;98630.94;;;-0.37;92.80
66880;BME280;72009;51.392;10.234;2024-03-08T00:33:15;98632.59;;;-0.36;93.00
66880;BME280;72009;51.392;10.234;2024-03-08T00:33:35;98633.66;;;-0.37;93.26
66880;BME280;72009;51.392;10.234;2024-03-08T00:33:56;98632.59;;;-0.36;92.95
66880;BME280;72009;51.392;10.234;2024-03-08T00:34:16;98631.75;;;-0.37;93.34
66880;BME280;72009;51.392;10.234;2024-03-08T00:34:36;98630.72;;;-0.36;93.74
66880;BME280;72009;51.392;10.234;2024-03-08T00:34:57;98636.13;;;-0.36;93.29
66880;BME280;72009;51.392;10.234;2024-03-08T00:35:17;98634.47;;;-0.37;93.33
66880;BME280;72009;51.392;10.234;2024-03-08T00:35:38;98629.91;;;-0.36;94.09
66880;BME280;72009;51.392;10.234;2024-03-08T00:35:58;98628.03;;;-0.36;93.59
66880;BME280;72009;51.392;10.234;2024-03-08T00:36:18;98626.13;;;-0.35;93.64
66880;BME280;72009;51.392;10.234;2024-03-08T00:36:38;98632.59;;;-0.36;93.36
66880;BME280;72009;51.392;10.234;2024-03-08T00:36:59;98631.53;;;-0.35;94.04
66880;BME280;72009;51.392;10.234;2024-03-08T00:37:20;98632.38;;;-0.35;93.37
66880;BME280;72009;51.392;10.234;2024-03-08T00:37:41;98628.84;;;-0.35;93.37
66880;BME280;72009;51.392;10.234;2024-03-08T00:38:01;98634.25;;;-0.35;93.41
66880;BME280;72009;51.392;10.234;2024-03-08T00:38:21;98627.22;;;-0.36;93.97
66880;BME280;72009;51.392;10.234;2024-03-08T00:38:42;98624.50;;;-0.36;93.24
66880;BME280;72009;51.392;10.234;2024-03-08T00:39:02;98627.22;;;-0.36;93.40
66880;BME280;72009;51.392;10.234;2024-03-08T00:39:22;98632.38;;;-0.35;93.22
66880;BME280;72009;51.392;10.234;2024-03-08T00:39:43;98625.31;;;-0.36;93.33
66880;BME280;72009;51.392;10.234;2024-03-08T00:40:03;98631.53;;;-0.35;93.45
66880;BME280;72009;51.392;10.234;2024-03-08T00:40:24;98624.50;;;-0.36;93.58
66880;BME280;72009;51.392;10.234;2024-03-08T00:40:44;98625.31;;;-0.36;93.65
66880;BME280;72009;51.392;10.234;2024-03-08T00:41:05;98626.13;;;-0.35;93.32
66880;BME280;72009;51.392;10.234;2024-03-08T00:41:25;98624.50;;;-0.36;93.83
66880;BME280;72009;51.392;10.234;2024-03-08T00:41:45;98624.28;;;-0.35;93.70
66880;BME280;72009;51.392;10.234;2024-03-08T00:42:05;98618.88;;;-0.35;93.16
66880;BME280;72009;51.392;10.234;2024-03-08T00:42:26;98626.75;;;-0.33;93.29
66880;BME280;72009;51.392;10.234;2024-03-08T00:42:46;98619.69;;;-0.34;92.64
66880;BME280;72009;51.392;10.234;2024-03-08T00:43:06;98623.19;;;-0.34;93.64
66880;BME280;72009;51.392;10.234;2024-03-08T00:43:26;98619.69;;;-0.34;93.15
66880;BME280;72009;51.392;10.234;2024-03-08T00:43:47;98626.97;;;-0.35;93.40
66880;BME280;72009;51.392;10.234;2024-03-08T00:44:07;98616.41;;;-0.36;92.24
66880;BME280;72009;51.392;10.234;2024-03-08T00:44:27;98618.03;;;-0.35;93.00
66880;BME280;72009;51.392;10.234;2024-03-08T00:44:48;98616.97;;;-0.34;93.46
66880;BME280;72009;51.392;10.234;2024-03-08T00:45:09;98615.31;;;-0.35;92.30
66880;BME280;72009;51.392;10.234;2024-03-08T00:45:29;98623.44;;;-0.35;93.37
66880;BME280;72009;51.392;10.234;2024-03-08T00:45:50;98619.47;;;-0.33;93.12
66880;BME280;72009;51.392;10.234;2024-03-08T00:46:10;98616.53;;;-0.31;93.42
66880;BME280;72009;51.392;10.234;2024-03-08T00:46:30;98619.47;;;-0.33;92.87
66880;BME280;72009;51.392;10.234;2024-03-08T00:46:51;98615.09;;;-0.34;92.42
66880;BME280;72009;51.392;10.234;2024-03-08T00:47:11;98615.31;;;-0.35;92.57
66880;BME280;72009;51.392;10.234;2024-03-08T00:47:31;98612.63;;;-0.35;92.54
66880;BME280;72009;51.392;10.234;2024-03-08T00:47:52;98617.22;;;-0.36;92.59
66880;BME280;72009;51.392;10.234;2024-03-08T00:48:12;98610.75;;;-0.35;92.63
66880;BME280;72009;51.392;10.234;2024-03-08T00:48:32;98615.09;;;-0.34;93.16
66880;BME280;72009;51.392;10.234;2024-03-08T00:48:52;98613.22;;;-0.33;93.27
66880;BME280;72009;51.392;10.234;2024-03-08T00:49:13;98616.16;;;-0.35;92.05
66880;BME280;72009;51.392;10.234;2024-03-08T00:49:33;98616.16;;;-0.35;92.94
66880;BME280;72009;51.392;10.234;2024-03-08T00:49:53;98608.88;;;-0.34;93.09
66880;BME280;72009;51.392;10.234;2024-03-08T00:50:14;98615.09;;;-0.34;92.91
66880;BME280;72009;51.392;10.234;2024-03-08T00:50:34;98611.56;;;-0.34;92.88
66880;BME280;72009;51.392;10.234;2024-03-08T00:50:54;98614.28;;;-0.34;93.48
66880;BME280;72009;51.392;10.234;2024-03-08T00:51:14;98614.28;;;-0.34;93.25
66880;BME280;72009;51.392;10.234;2024-03-08T00:51:35;98611.56;;;-0.34;93.41
66880;BME280;72009;51.392;10.234;2024-03-08T00:51:55;98610.75;;;-0.35;93.15
66880;BME280;72009;51.392;10.234;2024-03-08T00:52:15;98612.84;;;-0.37;92.81
66880;BME280;72009;51.392;10.234;2024-03-08T00:52:36;98615.53;;;-0.37;92.23
66880;BME280;72009;51.392;10.234;2024-03-08T00:52:57;98608.28;;;-0.36;92.85
66880;BME280;72009;51.392;10.234;2024-03-08T00:53:17;98608.50;;;-0.38;92.88
66880;BME280;72009;51.392;10.234;2024-03-08T00:53:37;98615.78;;;-0.38;93.36
66880;BME280;72009;51.392;10.234;2024-03-08T00:53:58;98607.66;;;-0.38;92.74
66880;BME280;72009;51.392;10.234;2024-03-08T00:54:18;98610.59;;;-0.40;92.48
66880;BME280;72009;51.392;10.234;2024-03-08T00:54:38;98602.72;;;-0.41;92.96
66880;BME280;72009;51.392;10.234;2024-03-08T00:54:59;98612.47;;;-0.40;92.70
66880;BME280;72009;51.392;10.234;2024-03-08T00:55:19;98602.50;;;-0.40;93.14
66880;BME280;72009;51.392;10.234;2024-03-08T00:55:39;98607.06;;;-0.40;93.17
66880;BME280;72009;51.392;10.234;2024-03-08T00:55:59;98608.94;;;-0.41;92.83
66880;BME280;72009;51.392;10.234;2024-03-08T00:56:20;98609.16;;;-0.42;93.65
66880;BME280;72009;51.392;10.234;2024-03-08T00:56:40;98606.47;;;-0.42;93.08
66880;BME280;72009;51.392;10.234;2024-03-08T00:57:00;98605.66;;;-0.43;92.05
66880;BME280;72009;51.392;10.234;2024-03-08T00:57:20;98605.88;;;-0.44;92.07
66880;BME280;72009;51.392;10.234;2024-03-08T00:57:41;98605.06;;;-0.45;93.15
66880;BME280;72009;51.392;10.234;2024-03-08T00:58:01;98609.63;;;-0.45;92.61
66880;BME280;72009;51.392;10.234;2024-03-08T00:58:21;98605.28;;;-0.46;92.22
66880;BME280;72009;51.392;10.234;2024-03-08T00:58:42;98612.53;;;-0.47;92.29
66880;BME280;72009;51.392;10.234;2024-03-08T00:59:02;98607.16;;;-0.47;92.79
66880;BME280;72009;51.392;10.234;2024-03-08T00:59:22;98616.09;;;-0.46;92.25
66880;BME280;72009;51.392;10.234;2024-03-08T00:59:42;98605.50;;;-0.48;92.33
66880;BME280;72009;51.392;10.234;2024-03-08T01:00:04;98614.66;;;-0.49;92.67
66880;BME280;72009;51.392;10.234;2024-03-08T01:00:25;98608.44;;;-0.50;92.83
66880;BME280;72009;51.392;10.234;2024-03-08T01:00:45;98610.31;;;-0.50;91.91
66880;BME280;72009;51.392;10.234;2024-03-08T01:01:05;98605.13;;;-0.52;92.58
66880;BME280;72009;51.392;10.234;2024-03-08T01:01:26;98609.47;;;-0.51;92.49
66880;BME280;72009;51.392;10.234;2024-03-08T01:01:46;98611.38;;;-0.51;92.64
66880;BME280;72009;51.392;10.234;2024-03-08T01:02:06;98605.97;;;-0.51;93.00
66880;BME280;72009;51.392;10.234;2024-03-08T01:02:27;98612.19;;;-0.51;93.35
66880;BME280;72009;51.392;10.234;2024-03-08T01:02:47;98605.97;;;-0.51;93.42
66880;BME280;72009;51.392;10.234;2024-03-08T01:03:07;98608.66;;;-0.51;93.57
66880;BME280;72009;51.392;10.234;2024-03-08T01:03:28;98611.56;;;-0.53;92.90
66880;BME280;72009;51.392;10.234;2024-03-08T01:03:48;98601.59;;;-0.52;92.70
66880;BME280;72009;51.392;10.234;2024-03-08T01:04:08;98605.13;;;-0.52;92.53
66880;BME280;72009;51.392;10.234;2024-03-08T01:04:29;98608.88;;;-0.53;93.55
66880;BME280;72009;51.392;10.234;2024-03-08T01:04:49;98608.88;;;-0.53;93.39
66880;BME280;72009;51.392;10.234;2024-03-08T01:05:10;98600.16;;;-0.55;93.47
66880;BME280;72009;51.392;10.234;2024-03-08T01:05:30;98608.88;;;-0.53;93.44
66880;BME280;72009;51.392;10.234;2024-03-08T01:05:50;98605.34;;;-0.53;92.78
66880;BME280;72009;51.392;10.234;2024-03-08T01:06:11;98611.78;;;-0.54;92.98
66880;BME280;72009;51.392;10.234;2024-03-08T01:06:31;98605.56;;;-0.55;93.46
66880;BME280;72009;51.392;10.234;2024-03-08T01:06:51;98602.06;;;-0.55;93.17
66880;BME280;72009;51.392;10.234;2024-03-08T01:07:11;98606.63;;;-0.56;93.68
66880;BME280;72009;51.392;10.234;2024-03-08T01:07:32;98607.69;;;-0.57;93.53
66880;BME280;72009;51.392;10.234;2024-03-08T01:07:52;98605.22;;;-0.58;93.46
66880;BME280;72009;51.392;10.234;2024-03-08T01:08:12;98598.97;;;-0.59;93.66
66880;BME280;72009;51.392;10.234;2024-03-08T01:08:32;98600.84;;;-0.59;93.76
66880;BME280;72009;51.392;10.234;2024-03-08T01:08:53;98601.66;;;-0.59;92.97
66880;BME280;72009;51.392;10.234;2024-03-08T01:09:13;98600.03;;;-0.60;93.94
66880;BME280;72009;51.392;10.234;2024-03-08T01:09:33;98601.06;;;-0.61;93.70
66880;BME280;72009;51.392;10.234;2024-03-08T01:09:54;98602.13;;;-0.62;93.33
66880;BME280;72009;51.392;10.234;2024-03-08T01:10:14;98600.50;;;-0.63;94.00
66880;BME280;72009;51.392;10.234;2024-03-08T01:10:34;98603.19;;;-0.63;93.17
66880;BME280;72009;51.392;10.234;2024-03-08T01:10:54;98604.22;;;-0.64;93.29
66880;BME280;72009;51.392;10.234;2024-03-08T01:11:15;98594.47;;;-0.65;92.75
66880;BME280;72009;51.392;10.234;2024-03-08T01:11:35;98602.56;;;-0.65;93.49
66880;BME280;72009;51.392;10.234;2024-03-08T01:11:55;98600.91;;;-0.66;93.09
66880;BME280;72009;51.392;10.234;2024-03-08T01:12:16;98601.75;;;-0.66;93.49
66880;BME280;72009;51.392;10.234;2024-03-08T01:12:36;98601.97;;;-0.67;93.68
66880;BME280;72009;51.392;10.234;2024-03-08T01:12:56;98601.13;;;-0.68;92.94
66880;BME280;72009;51.392;10.234;2024-03-08T01:13:17;98593.88;;;-0.67;92.91
66880;BME280;72009;51.392;10.234;2024-03-08T01:13:37;98596.56;;;-0.67;93.60
66880;BME280;72009;51.392;10.234;2024-03-08T01:13:57;98595.50;;;-0.66;93.62
66880;BME280;72009;51.392;10.234;2024-03-08T01:14:17;98589.06;;;-0.65;93.38
66880;BME280;72009;51.392;10.234;2024-03-08T01:14:38;98596.34;;;-0.66;92.74
66880;BME280;72009;51.392;10.234;2024-03-08T01:14:58;98592.81;;;-0.66;93.51
66880;BME280;72009;51.392;10.234;2024-03-08T01:15:18;98600.91;;;-0.66;93.94
66880;BME280;72009;51.392;10.234;2024-03-08T01:15:39;98594.91;;;-0.68;93.52
66880;BME280;72009;51.392;10.234;2024-03-08T01:15:59;98595.72;;;-0.68;93.08
66880;BME280;72009;51.392;10.234;2024-03-08T01:16:19;98591.16;;;-0.67;93.37
66880;BME280;72009;51.392;10.234;2024-03-08T01:16:39;98592.00;;;-0.67;93.26
66880;BME280;72009;51.392;10.234;2024-03-08T01:17:00;98595.50;;;-0.66;93.79
66880;BME280;72009;51.392;10.234;2024-03-08T01:17:20;98589.06;;;-0.65;93.51
66880;BME280;72009;51.392;10.234;2024-03-08T01:17:40;98597.16;;;-0.65;94.74
66880;BME280;72009;51.392;10.234;2024-03-08T01:18:01;98591.75;;;-0.65;94.27
66880;BME280;72009;51.392;10.234;2024-03-08T01:18:21;98589.06;;;-0.65;94.28
66880;BME280;72009;51.392;10.234;2024-03-08T01:18:41;98594.47;;;-0.65;93.49
66880;BME280;72009;51.392;10.234;2024-03-08T01:19:02;98590.72;;;-0.64;94.01
66880;BME280;72009;51.392;10.234;2024-03-08T01:19:22;98588.84;;;-0.63;93.54
66880;BME280;72009;51.392;10.234;2024-03-08T01:19:42;98592.38;;;-0.63;93.58
66880;BME280;72009;51.392;10.234;2024-03-08T01:20:04;98586.97;;;-0.63;94.02
66880;BME280;72009;51.392;10.234;2024-03-08T01:20:25;98589.69;;;-0.63;93.74
66880;BME280;72009;51.392;10.234;2024-03-08T01:20:45;98586.97;;;-0.63;94.23
66880;BME280;72009;51.392;10.234;2024-03-08T01:21:05;98583.19;;;-0.62;94.29
66880;BME280;72009;51.392;10.234;2024-03-08T01:21:25;98584.88;;;-0.61;94.44
66880;BME280;72009;51.392;10.234;2024-03-08T01:21:46;98590.25;;;-0.61;93.57
66880;BME280;72009;51.392;10.234;2024-03-08T01:22:06;98584.06;;;-0.61;93.85
66880;BME280;72009;51.392;10.234;2024-03-08T01:22:26;98585.69;;;-0.60;94.08
66880;BME280;72009;51.392;10.234;2024-03-08T01:22:47;98580.50;;;-0.62;93.91
66880;BME280;72009;51.392;10.234;2024-03-08T01:23:07;98584.88;;;-0.61;93.55
66880;BME280;72009;51.392;10.234;2024-03-08T01:23:27;98577.81;;;-0.62;93.84
66880;BME280;72009;51.392;10.234;2024-03-08T01:23:47;98585.69;;;-0.60;94.00
66880;BME280;72009;51.392;10.234;2024-03-08T01:24:08;98577.34;;;-0.59;94.18
66880;BME280;72009;51.392;10.234;2024-03-08T01:24:28;98576.53;;;-0.59;93.90
66880;BME280;72009;51.392;10.234;2024-03-08T01:24:48;98581.13;;;-0.60;94.17
66880;BME280;72009;51.392;10.234;2024-03-08T01:25:09;98573.00;;;-0.60;94.49
66880;BME280;72009;51.392;10.234;2024-03-08T01:25:29;98575.50;;;-0.58;94.51
66880;BME280;72009;51.392;10.234;2024-03-08T01:25:49;98575.50;;;-0.58;93.55
66880;BME280;72009;51.392;10.234;2024-03-08T01:26:10;98576.31;;;-0.58;93.94
66880;BME280;72009;51.392;10.234;2024-03-08T01:26:30;98571.72;;;-0.57;93.18
66880;BME280;72009;51.392;10.234;2024-03-08T01:26:50;98574.41;;;-0.57;94.15
66880;BME280;72009;51.392;10.234;2024-03-08T01:27:11;98575.25;;;-0.57;93.27
66880;BME280;72009;51.392;10.234;2024-03-08T01:27:31;98571.94;;;-0.59;93.49
66880;BME280;72009;51.392;10.234;2024-03-08T01:27:51;98571.94;;;-0.59;93.82
66880;BME280;72009;51.392;10.234;2024-03-08T01:28:11;98573.81;;;-0.59;93.55
66880;BME280;72009;51.392;10.234;2024-03-08T01:28:32;98574.06;;;-0.61;93.47
66880;BME280;72009;51.392;10.234;2024-03-08T01:28:52;98577.56;;;-0.60;93.08
66880;BME280;72009;51.392;10.234;2024-03-08T01:29:12;98578.41;;;-0.60;93.66
66880;BME280;72009;51.392;10.234;2024-03-08T01:29:33;98574.88;;;-0.60;93.32
66880;BME280;72009;51.392;10.234;2024-03-08T01:29:53;98574.06;;;-0.61;93.48
66880;BME280;72009;51.392;10.234;2024-03-08T01:30:13;98570.53;;;-0.61;92.42
66880;BME280;72009;51.392;10.234;2024-03-08T01:30:33;98570.75;;;-0.63;92.55
66880;BME280;72009;51.392;10.234;2024-03-08T01:30:54;98572.41;;;-0.62;92.32
66880;BME280;72009;51.392;10.234;2024-03-08T01:31:14;98566.19;;;-0.62;92.77
66880;BME280;72009;51.392;10.234;2024-03-08T01:31:34;98571.56;;;-0.62;92.97
66880;BME280;72009;51.392;10.234;2024-03-08T01:31:55;98565.38;;;-0.63;93.54
66880;BME280;72009;51.392;10.234;2024-03-08T01:32:15;98568.25;;;-0.65;93.52
66880;BME280;72009;51.392;10.234;2024-03-08T01:32:36;98569.09;;;-0.64;93.39
66880;BME280;72009;51.392;10.234;2024-03-08T01:32:56;98573.66;;;-0.65;92.11
66880;BME280;72009;51.392;10.234;2024-03-08T01:33:16;98569.34;;;-0.66;93.13
66880;BME280;72009;51.392;10.234;2024-03-08T01:33:37;98568.50;;;-0.66;92.88
66880;BME280;72009;51.392;10.234;2024-03-08T01:33:57;98572.03;;;-0.66;93.72
66880;BME280;72009;51.392;10.234;2024-03-08T01:34:18;98567.66;;;-0.67;93.43
66880;BME280;72009;51.392;10.234;2024-03-08T01:34:38;98572.25;;;-0.67;93.82
66880;BME280;72009;51.392;10.234;2024-03-08T01:34:58;98569.56;;;-0.67;93.48
66880;BME280;72009;51.392;10.234;2024-03-08T01:35:19;98566.00;;;-0.68;93.04
66880;BME280;72009;51.392;10.234;2024-03-08T01:35:39;98571.63;;;-0.69;92.60
66880;BME280;72009;51.392;10.234;2024-03-08T01:35:59;98570.00;;;-0.70;93.09
66880;BME280;72009;51.392;10.234;2024-03-08T01:36:20;98562.13;;;-0.72;91.80
66880;BME280;72009;51.392;10.234;2024-03-08T01:36:40;98561.28;;;-0.72;92.25
66880;BME280;72009;51.392;10.234;2024-03-08T01:37:00;98563.41;;;-0.74;92.90
66880;BME280;72009;51.392;10.234;2024-03-08T01:37:20;98564.22;;;-0.74;92.16
66880;BME280;72009;51.392;10.234;2024-03-08T01:37:41;98561.75;;;-0.75;92.59
66880;BME280;72009;51.392;10.234;2024-03-08T01:38:01;98555.53;;;-0.76;92.46
66880;BME280;72009;51.392;10.234;2024-03-08T01:38:21;98564.44;;;-0.75;92.72
66880;BME280;72009;51.392;10.234;2024-03-08T01:38:42;98549.28;;;-0.76;92.12
66880;BME280;72009;51.392;10.234;2024-03-08T01:39:03;98554.69;;;-0.76;93.06
66880;BME280;72009;51.392;10.234;2024-03-08T01:39:23;98560.09;;;-0.76;93.52
66880;BME280;72009;51.392;10.234;2024-03-08T01:39:43;98559.25;;;-0.77;93.04
66880;BME280;72009;51.392;10.234;2024-03-08T01:40:04;98557.59;;;-0.78;93.29
66880;BME280;72009;51.392;10.234;2024-03-08T01:40:24;98565.72;;;-0.78;93.41
66880;BME280;72009;51.392;10.234;2024-03-08T01:40:44;98560.31;;;-0.78;92.73
66880;BME280;72009;51.392;10.234;2024-03-08T01:41:05;98561.38;;;-0.79;92.79
66880;BME280;72009;51.392;10.234;2024-03-08T01:41:25;98557.84;;;-0.79;93.23
66880;BME280;72009;51.392;10.234;2024-03-08T01:41:45;98552.44;;;-0.79;93.07
66880;BME280;72009;51.392;10.234;2024-03-08T01:42:06;98553.28;;;-0.79;93.19
66880;BME280;72009;51.392;10.234;2024-03-08T01:42:26;98555.13;;;-0.79;93.65
66880;BME280;72009;51.392;10.234;2024-03-08T01:42:46;98557.59;;;-0.78;93.82
66880;BME280;72009;51.392;10.234;2024-03-08T01:43:26;98549.50;;;-0.78;94.23
66880;BME280;72009;51.392;10.234;2024-03-08T01:43:47;98557.59;;;-0.78;93.61
66880;BME280;72009;51.392;10.234;2024-03-08T01:44:07;98550.34;;;-0.77;93.84
66880;BME280;72009;51.392;10.234;2024-03-08T01:44:27;98547.66;;;-0.77;94.65
66880;BME280;72009;51.392;10.234;2024-03-08T01:44:48;98547.66;;;-0.77;93.56
66880;BME280;72009;51.392;10.234;2024-03-08T01:45:08;98543.88;;;-0.76;94.24
66880;BME280;72009;51.392;10.234;2024-03-08T01:45:28;98542.84;;;-0.75;93.65
66880;BME280;72009;51.392;10.234;2024-03-08T01:45:49;98547.41;;;-0.76;93.58
66880;BME280;72009;51.392;10.234;2024-03-08T01:46:12;98543.06;;;-0.77;93.79
66880;BME280;72009;51.392;10.234;2024-03-08T01:46:34;98541.41;;;-0.78;93.72
66880;BME280;72009;51.392;10.234;2024-03-08T01:46:55;98545.75;;;-0.77;93.58